sensor_id;sensor_type;location;lat;lon;timestamp;temperature;humidity
4376;DHT22;2202;50.866;12.750;2023-05-10T00:01:29;11.90;57.60
4376;DHT22;2202;50.866;12.750;2023-05-10T00:03:55;11.90;57.60
4376;DHT22;2202;50.866;12.750;2023-05-10T00:06:22;11.90;58.00
4376;DHT22;2202;50.866;12.750;2023-05-10T00:08:49;11.90;57.60
4376;DHT22;2202;50.866;12.750;2023-05-10T00:11:17;11.90;58.00
4376;DHT22;2202;50.866;12.750;2023-05-10T00:13:44;11.80;58.00
4376;DHT22;2202;50.866;12.750;2023-05-10T00:16:11;11.80;58.20
4376;DHT22;2202;50.866;12.750;2023-05-10T00:18:38;11.80;58.20
4376;DHT22;2202;50.866;12.750;2023-05-10T00:21:05;11.80;58.20
4376;DHT22;2202;50.866;12.750;2023-05-10T00:23:32;11.80;58.30
4376;DHT22;2202;50.866;12.750;2023-05-10T00:25:59;11.70;58.70
4376;DHT22;2202;50.866;12.750;2023-05-10T00:28:28;11.70;58.50
4376;DHT22;2202;50.866;12.750;2023-05-10T00:30:56;11.70;58.70
4376;DHT22;2202;50.866;12.750;2023-05-10T00:33:23;11.70;58.90
4376;DHT22;2202;50.866;12.750;2023-05-10T00:35:50;11.70;59.00
4376;DHT22;2202;50.866;12.750;2023-05-10T00:38:17;11.60;59.00
4376;DHT22;2202;50.866;12.750;2023-05-10T00:40:43;11.60;59.20
4376;DHT22;2202;50.866;12.750;2023-05-10T00:43:10;11.60;59.40
4376;DHT22;2202;50.866;12.750;2023-05-10T00:45:40;11.60;59.40
4376;DHT22;2202;50.866;12.750;2023-05-10T00:48:07;11.50;59.80
4376;DHT22;2202;50.866;12.750;2023-05-10T00:50:34;11.50;60.10
4376;DHT22;2202;50.866;12.750;2023-05-10T00:53:02;11.50;60.20
4376;DHT22;2202;50.866;12.750;2023-05-10T00:55:29;11.50;60.40
4376;DHT22;2202;50.866;12.750;2023-05-10T00:57:56;11.40;60.20
4376;DHT22;2202;50.866;12.750;2023-05-10T01:00:23;11.40;60.40
4376;DHT22;2202;50.866;12.750;2023-05-10T01:02:53;11.40;60.40
4376;DHT22;2202;50.866;12.750;2023-05-10T01:05:20;11.40;60.20
4376;DHT22;2202;50.866;12.750;2023-05-10T01:07:47;11.40;60.60
4376;DHT22;2202;50.866;12.750;2023-05-10T01:10:14;11.40;60.80
4376;DHT22;2202;50.866;12.750;2023-05-10T01:12:43;11.40;60.60
4376;DHT22;2202;50.866;12.750;2023-05-10T01:15:12;11.40;60.60
4376;DHT22;2202;50.866;12.750;2023-05-10T01:17:43;11.30;60.80
4376;DHT22;2202;50.866;12.750;2023-05-10T01:20:12;11.30;61.00
4376;DHT22;2202;50.866;12.750;2023-05-10T01:23:07;11.30;61.40
4376;DHT22;2202;50.866;12.750;2023-05-10T01:26:03;11.30;61.80
4376;DHT22;2202;50.866;12.750;2023-05-10T01:28:58;11.20;61.60
4376;DHT22;2202;50.866;12.750;2023-05-10T01:34:34;11.20;61.80
4376;DHT22;2202;50.866;12.750;2023-05-10T01:37:07;11.20;61.60
4376;DHT22;2202;50.866;12.750;2023-05-10T01:39:41;11.20;61.60
4376;DHT22;2202;50.866;12.750;2023-05-10T01:42:14;11.20;61.80
4376;DHT22;2202;50.866;12.750;2023-05-10T01:44:46;11.00;63.20
4376;DHT22;2202;50.866;12.750;2023-05-10T01:47:20;11.00;63.60
4376;DHT22;2202;50.866;12.750;2023-05-10T01:49:50;10.90;64.40
4376;DHT22;2202;50.866;12.750;2023-05-10T01:52:22;10.80;64.60
4376;DHT22;2202;50.866;12.750;2023-05-10T01:54:51;10.80;65.00
4376;DHT22;2202;50.866;12.750;2023-05-10T01:57:22;10.70;65.20
4376;DHT22;2202;50.866;12.750;2023-05-10T01:59:52;10.70;64.60
4376;DHT22;2202;50.866;12.750;2023-05-10T02:02:21;10.70;64.40
4376;DHT22;2202;50.866;12.750;2023-05-10T02:04:49;10.70;64.40
4376;DHT22;2202;50.866;12.750;2023-05-10T02:07:17;10.70;64.20
4376;DHT22;2202;50.866;12.750;2023-05-10T02:09:45;10.70;64.20
4376;DHT22;2202;50.866;12.750;2023-05-10T02:12:14;10.60;64.80
4376;DHT22;2202;50.866;12.750;2023-05-10T02:14:43;10.50;65.40
4376;DHT22;2202;50.866;12.750;2023-05-10T02:17:11;10.50;66.00
4376;DHT22;2202;50.866;12.750;2023-05-10T02:19:40;10.40;66.00
4376;DHT22;2202;50.866;12.750;2023-05-10T02:22:10;10.40;66.00
4376;DHT22;2202;50.866;12.750;2023-05-10T02:24:38;10.30;66.60
4376;DHT22;2202;50.866;12.750;2023-05-10T02:27:06;10.20;67.20
4376;DHT22;2202;50.866;12.750;2023-05-10T02:29:34;10.10;68.20
4376;DHT22;2202;50.866;12.750;2023-05-10T02:32:03;10.10;68.60
4376;DHT22;2202;50.866;12.750;2023-05-10T02:34:31;10.00;68.80
4376;DHT22;2202;50.866;12.750;2023-05-10T02:36:59;10.00;69.20
4376;DHT22;2202;50.866;12.750;2023-05-10T02:39:28;9.90;69.40
4376;DHT22;2202;50.866;12.750;2023-05-10T02:41:57;9.80;69.80
4376;DHT22;2202;50.866;12.750;2023-05-10T02:44:26;9.80;70.00
4376;DHT22;2202;50.866;12.750;2023-05-10T02:46:56;9.80;70.20
4376;DHT22;2202;50.866;12.750;2023-05-10T02:49:24;9.80;70.40
4376;DHT22;2202;50.866;12.750;2023-05-10T02:51:56;9.70;70.80
4376;DHT22;2202;50.866;12.750;2023-05-10T02:54:29;9.70;70.40
4376;DHT22;2202;50.866;12.750;2023-05-10T02:56:58;9.70;71.20
4376;DHT22;2202;50.866;12.750;2023-05-10T02:59:26;9.60;71.20
4376;DHT22;2202;50.866;12.750;2023-05-10T03:01:53;9.60;71.60
4376;DHT22;2202;50.866;12.750;2023-05-10T03:04:20;9.50;71.80
4376;DHT22;2202;50.866;12.750;2023-05-10T03:06:47;9.50;72.00
4376;DHT22;2202;50.866;12.750;2023-05-10T03:09:14;9.50;72.20
4376;DHT22;2202;50.866;12.750;2023-05-10T03:11:55;9.50;71.80
4376;DHT22;2202;50.866;12.750;2023-05-10T03:14:34;9.40;72.60
4376;DHT22;2202;50.866;12.750;2023-05-10T03:17:08;9.30;73.20
4376;DHT22;2202;50.866;12.750;2023-05-10T03:19:44;9.30;74.00
4376;DHT22;2202;50.866;12.750;2023-05-10T03:22:21;9.30;74.00
4376;DHT22;2202;50.866;12.750;2023-05-10T03:24:51;9.20;74.60
4376;DHT22;2202;50.866;12.750;2023-05-10T03:27:22;9.20;74.60
4376;DHT22;2202;50.866;12.750;2023-05-10T03:29:51;9.20;75.20
4376;DHT22;2202;50.866;12.750;2023-05-10T03:32:19;9.20;75.00
4376;DHT22;2202;50.866;12.750;2023-05-10T03:34:46;9.20;75.00
4376;DHT22;2202;50.866;12.750;2023-05-10T03:37:12;9.20;75.20
4376;DHT22;2202;50.866;12.750;2023-05-10T03:39:39;9.20;75.00
4376;DHT22;2202;50.866;12.750;2023-05-10T03:42:06;9.20;75.60
4376;DHT22;2202;50.866;12.750;2023-05-10T03:44:34;9.30;75.00
4376;DHT22;2202;50.866;12.750;2023-05-10T03:47:01;9.30;75.20
4376;DHT22;2202;50.866;12.750;2023-05-10T03:49:28;9.30;75.20
4376;DHT22;2202;50.866;12.750;2023-05-10T03:51:55;9.30;75.00
4376;DHT22;2202;50.866;12.750;2023-05-10T03:54:21;9.40;75.40
4376;DHT22;2202;50.866;12.750;2023-05-10T03:56:48;9.50;74.80
4376;DHT22;2202;50.866;12.750;2023-05-10T03:59:15;9.60;73.80
4376;DHT22;2202;50.866;12.750;2023-05-10T04:01:43;9.80;72.60
4376;DHT22;2202;50.866;12.750;2023-05-10T04:04:10;9.90;72.40
4376;DHT22;2202;50.866;12.750;2023-05-10T04:06:38;10.00;71.40
4376;DHT22;2202;50.866;12.750;2023-05-10T04:09:05;10.10;71.20
4376;DHT22;2202;50.866;12.750;2023-05-10T04:11:31;10.20;70.60
4376;DHT22;2202;50.866;12.750;2023-05-10T04:13:58;10.30;70.20
4376;DHT22;2202;50.866;12.750;2023-05-10T04:16:25;10.30;70.20
4376;DHT22;2202;50.866;12.750;2023-05-10T04:18:53;10.40;70.00
4376;DHT22;2202;50.866;12.750;2023-05-10T04:21:20;10.40;69.40
4376;DHT22;2202;50.866;12.750;2023-05-10T04:23:47;10.50;69.20
4376;DHT22;2202;50.866;12.750;2023-05-10T04:26:14;10.60;69.40
4376;DHT22;2202;50.866;12.750;2023-05-10T04:28:41;10.60;69.00
4376;DHT22;2202;50.866;12.750;2023-05-10T04:31:09;10.60;68.80
4376;DHT22;2202;50.866;12.750;2023-05-10T04:33:36;10.70;69.00
4376;DHT22;2202;50.866;12.750;2023-05-10T04:36:05;10.80;68.60
4376;DHT22;2202;50.866;12.750;2023-05-10T04:38:32;10.80;68.60
4376;DHT22;2202;50.866;12.750;2023-05-10T04:41:06;10.90;68.00
4376;DHT22;2202;50.866;12.750;2023-05-10T04:43:33;11.00;67.80
4376;DHT22;2202;50.866;12.750;2023-05-10T04:46:00;11.10;68.00
4376;DHT22;2202;50.866;12.750;2023-05-10T04:48:26;11.20;67.60
4376;DHT22;2202;50.866;12.750;2023-05-10T04:50:53;11.20;67.00
4376;DHT22;2202;50.866;12.750;2023-05-10T04:53:22;11.30;67.20
4376;DHT22;2202;50.866;12.750;2023-05-10T04:55:48;11.30;66.60
4376;DHT22;2202;50.866;12.750;2023-05-10T04:58:15;11.40;66.40
4376;DHT22;2202;50.866;12.750;2023-05-10T05:00:42;11.50;65.80
4376;DHT22;2202;50.866;12.750;2023-05-10T05:03:09;11.60;66.00
4376;DHT22;2202;50.866;12.750;2023-05-10T05:05:36;11.70;65.00
4376;DHT22;2202;50.866;12.750;2023-05-10T05:08:03;11.80;64.40
4376;DHT22;2202;50.866;12.750;2023-05-10T05:10:31;11.80;64.40
4376;DHT22;2202;50.866;12.750;2023-05-10T05:12:58;11.90;64.40
4376;DHT22;2202;50.866;12.750;2023-05-10T05:15:25;12.00;63.80
4376;DHT22;2202;50.866;12.750;2023-05-10T05:17:53;12.10;64.00
4376;DHT22;2202;50.866;12.750;2023-05-10T05:20:20;12.10;63.60
4376;DHT22;2202;50.866;12.750;2023-05-10T05:22:46;12.20;63.20
4376;DHT22;2202;50.866;12.750;2023-05-10T05:25:13;12.30;63.00
4376;DHT22;2202;50.866;12.750;2023-05-10T05:27:42;12.40;62.60
4376;DHT22;2202;50.866;12.750;2023-05-10T05:30:09;12.40;62.60
4376;DHT22;2202;50.866;12.750;2023-05-10T05:32:37;12.40;62.60
4376;DHT22;2202;50.866;12.750;2023-05-10T05:35:04;12.50;62.80
4376;DHT22;2202;50.866;12.750;2023-05-10T05:37:31;12.50;62.60
4376;DHT22;2202;50.866;12.750;2023-05-10T05:39:58;12.60;62.40
4376;DHT22;2202;50.866;12.750;2023-05-10T05:42:27;12.70;62.20
4376;DHT22;2202;50.866;12.750;2023-05-10T05:44:55;12.70;62.40
4376;DHT22;2202;50.866;12.750;2023-05-10T05:47:22;12.70;62.20
4376;DHT22;2202;50.866;12.750;2023-05-10T05:49:48;12.80;61.80
4376;DHT22;2202;50.866;12.750;2023-05-10T05:52:15;12.90;62.40
4376;DHT22;2202;50.866;12.750;2023-05-10T05:54:43;13.00;61.80
4376;DHT22;2202;50.866;12.750;2023-05-10T05:57:10;13.10;61.60
4376;DHT22;2202;50.866;12.750;2023-05-10T05:59:37;13.20;62.20
4376;DHT22;2202;50.866;12.750;2023-05-10T06:02:08;13.30;61.20
4376;DHT22;2202;50.866;12.750;2023-05-10T06:04:35;13.30;60.80
4376;DHT22;2202;50.866;12.750;2023-05-10T06:07:02;13.40;60.10
4376;DHT22;2202;50.866;12.750;2023-05-10T06:09:29;13.40;60.60
4376;DHT22;2202;50.866;12.750;2023-05-10T06:11:56;13.40;60.10
4376;DHT22;2202;50.866;12.750;2023-05-10T06:14:23;13.50;61.00
4376;DHT22;2202;50.866;12.750;2023-05-10T06:16:49;13.60;60.10
4376;DHT22;2202;50.866;12.750;2023-05-10T06:19:18;13.60;60.40
4376;DHT22;2202;50.866;12.750;2023-05-10T06:21:45;13.70;59.80
4376;DHT22;2202;50.866;12.750;2023-05-10T06:24:12;13.70;59.80
4376;DHT22;2202;50.866;12.750;2023-05-10T06:26:38;13.80;60.10
4376;DHT22;2202;50.866;12.750;2023-05-10T06:29:05;13.70;60.10
4376;DHT22;2202;50.866;12.750;2023-05-10T06:31:32;13.70;60.20
4376;DHT22;2202;50.866;12.750;2023-05-10T06:33:59;13.80;61.00
4376;DHT22;2202;50.866;12.750;2023-05-10T06:36:27;13.80;59.90
4376;DHT22;2202;50.866;12.750;2023-05-10T06:38:55;13.80;59.80
4376;DHT22;2202;50.866;12.750;2023-05-10T06:41:21;13.80;59.90
4376;DHT22;2202;50.866;12.750;2023-05-10T06:43:49;13.80;61.00
4376;DHT22;2202;50.866;12.750;2023-05-10T06:46:16;13.90;61.00
4376;DHT22;2202;50.866;12.750;2023-05-10T06:48:42;13.90;61.20
4376;DHT22;2202;50.866;12.750;2023-05-10T06:51:10;14.00;60.20
4376;DHT22;2202;50.866;12.750;2023-05-10T06:53:38;14.10;60.20
4376;DHT22;2202;50.866;12.750;2023-05-10T06:56:05;14.20;59.80
4376;DHT22;2202;50.866;12.750;2023-05-10T06:58:32;14.30;58.90
4376;DHT22;2202;50.866;12.750;2023-05-10T07:01:02;14.40;59.00
4376;DHT22;2202;50.866;12.750;2023-05-10T07:03:29;14.40;58.00
4376;DHT22;2202;50.866;12.750;2023-05-10T07:06:00;14.50;58.70
4376;DHT22;2202;50.866;12.750;2023-05-10T07:08:28;14.70;57.80
4376;DHT22;2202;50.866;12.750;2023-05-10T07:11:01;15.10;56.70
4376;DHT22;2202;50.866;12.750;2023-05-10T07:13:29;15.40;55.30
4376;DHT22;2202;50.866;12.750;2023-05-10T07:15:55;15.70;54.10
4376;DHT22;2202;50.866;12.750;2023-05-10T07:18:22;15.80;53.70
4376;DHT22;2202;50.866;12.750;2023-05-10T07:20:49;15.90;54.60
4376;DHT22;2202;50.866;12.750;2023-05-10T07:23:16;16.20;53.90
4376;DHT22;2202;50.866;12.750;2023-05-10T07:25:45;16.40;52.10
4376;DHT22;2202;50.866;12.750;2023-05-10T07:28:13;16.30;51.90
4376;DHT22;2202;50.866;12.750;2023-05-10T07:30:40;16.20;51.90
4376;DHT22;2202;50.866;12.750;2023-05-10T07:33:08;15.80;54.80
4376;DHT22;2202;50.866;12.750;2023-05-10T07:35:35;15.80;55.10
4376;DHT22;2202;50.866;12.750;2023-05-10T07:38:02;15.90;55.70
4376;DHT22;2202;50.866;12.750;2023-05-10T07:40:29;16.20;55.70
4376;DHT22;2202;50.866;12.750;2023-05-10T07:42:56;16.40;55.10
4376;DHT22;2202;50.866;12.750;2023-05-10T07:45:24;16.30;54.10
4376;DHT22;2202;50.866;12.750;2023-05-10T07:47:51;16.00;53.00
4376;DHT22;2202;50.866;12.750;2023-05-10T07:50:18;15.50;56.20
4376;DHT22;2202;50.866;12.750;2023-05-10T07:52:44;15.30;56.90
4376;DHT22;2202;50.866;12.750;2023-05-10T07:55:11;15.50;57.40
4376;DHT22;2202;50.866;12.750;2023-05-10T07:57:38;15.70;56.60
4376;DHT22;2202;50.866;12.750;2023-05-10T08:00:06;15.80;57.40
4376;DHT22;2202;50.866;12.750;2023-05-10T08:02:35;15.80;54.40
4376;DHT22;2202;50.866;12.750;2023-05-10T08:05:02;15.40;57.30
4376;DHT22;2202;50.866;12.750;2023-05-10T08:07:30;15.10;58.20
4376;DHT22;2202;50.866;12.750;2023-05-10T08:09:57;15.00;59.20
4376;DHT22;2202;50.866;12.750;2023-05-10T08:12:24;15.00;60.60
4376;DHT22;2202;50.866;12.750;2023-05-10T08:14:51;15.10;59.40
4376;DHT22;2202;50.866;12.750;2023-05-10T08:17:18;14.90;60.40
4376;DHT22;2202;50.866;12.750;2023-05-10T08:19:46;14.70;61.20
4376;DHT22;2202;50.866;12.750;2023-05-10T08:22:13;14.50;63.00
4376;DHT22;2202;50.866;12.750;2023-05-10T08:24:40;14.60;61.00
4376;DHT22;2202;50.866;12.750;2023-05-10T08:27:08;14.70;62.00
4376;DHT22;2202;50.866;12.750;2023-05-10T08:29:34;14.60;61.60
4376;DHT22;2202;50.866;12.750;2023-05-10T08:32:01;14.50;63.00
4376;DHT22;2202;50.866;12.750;2023-05-10T08:34:28;14.10;66.00
4376;DHT22;2202;50.866;12.750;2023-05-10T08:36:57;14.10;68.40
4376;DHT22;2202;50.866;12.750;2023-05-10T08:39:24;14.30;68.40
4376;DHT22;2202;50.866;12.750;2023-05-10T08:41:54;14.30;70.60
4376;DHT22;2202;50.866;12.750;2023-05-10T08:44:24;13.90;75.00
4376;DHT22;2202;50.866;12.750;2023-05-10T08:46:53;13.40;77.20
4376;DHT22;2202;50.866;12.750;2023-05-10T08:49:21;13.20;82.20
4376;DHT22;2202;50.866;12.750;2023-05-10T08:51:51;13.30;82.20
4376;DHT22;2202;50.866;12.750;2023-05-10T08:54:21;13.40;81.60
4376;DHT22;2202;50.866;12.750;2023-05-10T08:56:48;13.60;80.80
4376;DHT22;2202;50.866;12.750;2023-05-10T08:59:15;13.70;80.40
4376;DHT22;2202;50.866;12.750;2023-05-10T09:01:43;13.80;80.40
4376;DHT22;2202;50.866;12.750;2023-05-10T09:04:11;13.80;80.40
4376;DHT22;2202;50.866;12.750;2023-05-10T09:06:38;13.80;79.80
4376;DHT22;2202;50.866;12.750;2023-05-10T09:09:05;13.80;79.60
4376;DHT22;2202;50.866;12.750;2023-05-10T09:11:34;13.90;78.80
4376;DHT22;2202;50.866;12.750;2023-05-10T09:14:01;14.00;78.80
4376;DHT22;2202;50.866;12.750;2023-05-10T09:16:28;14.00;78.80
4376;DHT22;2202;50.866;12.750;2023-05-10T09:18:56;14.10;77.80
4376;DHT22;2202;50.866;12.750;2023-05-10T09:21:22;13.90;79.20
4376;DHT22;2202;50.866;12.750;2023-05-10T09:23:49;13.60;81.40
4376;DHT22;2202;50.866;12.750;2023-05-10T09:26:22;13.50;83.40
4376;DHT22;2202;50.866;12.750;2023-05-10T09:28:56;13.40;83.20
4376;DHT22;2202;50.866;12.750;2023-05-10T09:31:23;13.40;84.80
4376;DHT22;2202;50.866;12.750;2023-05-10T09:33:51;13.40;85.40
4376;DHT22;2202;50.866;12.750;2023-05-10T09:36:18;13.40;85.20
4376;DHT22;2202;50.866;12.750;2023-05-10T09:38:46;13.40;85.00
4376;DHT22;2202;50.866;12.750;2023-05-10T09:41:17;13.40;85.60
4376;DHT22;2202;50.866;12.750;2023-05-10T09:43:44;13.40;85.00
4376;DHT22;2202;50.866;12.750;2023-05-10T09:46:12;13.40;85.60
4376;DHT22;2202;50.866;12.750;2023-05-10T09:48:45;13.40;85.40
4376;DHT22;2202;50.866;12.750;2023-05-10T09:51:19;13.40;84.40
4376;DHT22;2202;50.866;12.750;2023-05-10T09:53:47;13.40;84.00
4376;DHT22;2202;50.866;12.750;2023-05-10T09:56:32;13.40;83.80
4376;DHT22;2202;50.866;12.750;2023-05-10T09:59:02;13.40;84.00
4376;DHT22;2202;50.866;12.750;2023-05-10T10:01:30;13.40;83.20
4376;DHT22;2202;50.866;12.750;2023-05-10T10:03:58;13.40;82.80
4376;DHT22;2202;50.866;12.750;2023-05-10T10:06:25;13.40;83.40
4376;DHT22;2202;50.866;12.750;2023-05-10T10:08:53;13.50;84.00
4376;DHT22;2202;50.866;12.750;2023-05-10T10:11:22;13.50;83.80
4376;DHT22;2202;50.866;12.750;2023-05-10T10:13:50;13.50;83.40
4376;DHT22;2202;50.866;12.750;2023-05-10T10:16:17;13.60;84.00
4376;DHT22;2202;50.866;12.750;2023-05-10T10:18:45;13.70;85.20
4376;DHT22;2202;50.866;12.750;2023-05-10T10:21:13;13.70;84.40
4376;DHT22;2202;50.866;12.750;2023-05-10T10:23:40;13.80;84.80
4376;DHT22;2202;50.866;12.750;2023-05-10T10:26:07;13.80;85.20
4376;DHT22;2202;50.866;12.750;2023-05-10T10:28:41;13.70;85.40
4376;DHT22;2202;50.866;12.750;2023-05-10T10:31:17;13.70;87.00
4376;DHT22;2202;50.866;12.750;2023-05-10T10:33:59;13.70;87.80
4376;DHT22;2202;50.866;12.750;2023-05-10T10:36:26;13.70;88.00
4376;DHT22;2202;50.866;12.750;2023-05-10T10:38:57;13.70;88.60
4376;DHT22;2202;50.866;12.750;2023-05-10T10:41:31;13.80;88.60
4376;DHT22;2202;50.866;12.750;2023-05-10T10:47:21;13.90;87.40
4376;DHT22;2202;50.866;12.750;2023-05-10T10:49:53;13.90;87.20
4376;DHT22;2202;50.866;12.750;2023-05-10T10:52:31;14.00;87.40
4376;DHT22;2202;50.866;12.750;2023-05-10T10:55:01;13.90;85.20
4376;DHT22;2202;50.866;12.750;2023-05-10T10:57:31;13.90;86.80
4376;DHT22;2202;50.866;12.750;2023-05-10T11:00:18;13.80;86.00
4376;DHT22;2202;50.866;12.750;2023-05-10T11:02:46;13.80;85.40
4376;DHT22;2202;50.866;12.750;2023-05-10T11:05:36;13.70;86.40
4376;DHT22;2202;50.866;12.750;2023-05-10T11:08:14;13.50;89.40
4376;DHT22;2202;50.866;12.750;2023-05-10T11:10:51;13.50;89.60
4376;DHT22;2202;50.866;12.750;2023-05-10T11:13:27;13.40;89.60
4376;DHT22;2202;50.866;12.750;2023-05-10T11:15:54;13.30;90.50
4376;DHT22;2202;50.866;12.750;2023-05-10T11:18:24;13.50;90.30
4376;DHT22;2202;50.866;12.750;2023-05-10T11:20:56;13.40;89.60
4376;DHT22;2202;50.866;12.750;2023-05-10T11:23:23;13.30;90.50
4376;DHT22;2202;50.866;12.750;2023-05-10T11:25:50;13.40;91.20
4376;DHT22;2202;50.866;12.750;2023-05-10T11:28:18;13.50;91.30
4376;DHT22;2202;50.866;12.750;2023-05-10T11:30:45;13.70;91.10
4376;DHT22;2202;50.866;12.750;2023-05-10T11:33:16;13.90;91.20
4376;DHT22;2202;50.866;12.750;2023-05-10T11:35:43;13.90;91.40
4376;DHT22;2202;50.866;12.750;2023-05-10T11:38:12;13.90;91.40
4376;DHT22;2202;50.866;12.750;2023-05-10T11:40:41;14.00;91.00
4376;DHT22;2202;50.866;12.750;2023-05-10T11:43:09;13.90;91.60
4376;DHT22;2202;50.866;12.750;2023-05-10T11:45:37;14.00;91.70
4376;DHT22;2202;50.866;12.750;2023-05-10T11:48:04;14.10;92.20
4376;DHT22;2202;50.866;12.750;2023-05-10T11:50:31;14.20;91.90
4376;DHT22;2202;50.866;12.750;2023-05-10T11:52:59;14.10;91.60
4376;DHT22;2202;50.866;12.750;2023-05-10T11:55:27;14.10;91.70
4376;DHT22;2202;50.866;12.750;2023-05-10T11:57:59;14.10;92.30
4376;DHT22;2202;50.866;12.750;2023-05-10T12:00:26;14.00;92.20
4376;DHT22;2202;50.866;12.750;2023-05-10T12:02:53;14.10;92.10
4376;DHT22;2202;50.866;12.750;2023-05-10T12:05:20;14.30;91.70
4376;DHT22;2202;50.866;12.750;2023-05-10T12:07:47;14.50;91.60
4376;DHT22;2202;50.866;12.750;2023-05-10T12:10:14;14.60;91.50
4376;DHT22;2202;50.866;12.750;2023-05-10T12:12:45;14.80;91.10
4376;DHT22;2202;50.866;12.750;2023-05-10T12:15:17;14.90;91.10
4376;DHT22;2202;50.866;12.750;2023-05-10T12:17:46;14.90;90.80
4376;DHT22;2202;50.866;12.750;2023-05-10T12:20:14;15.00;90.70
4376;DHT22;2202;50.866;12.750;2023-05-10T12:22:43;14.90;90.70
4376;DHT22;2202;50.866;12.750;2023-05-10T12:25:10;15.00;90.80
4376;DHT22;2202;50.866;12.750;2023-05-10T12:27:37;15.20;90.60
4376;DHT22;2202;50.866;12.750;2023-05-10T12:30:06;15.10;90.00
4376;DHT22;2202;50.866;12.750;2023-05-10T12:32:40;15.20;89.20
4376;DHT22;2202;50.866;12.750;2023-05-10T12:35:08;15.20;89.00
4376;DHT22;2202;50.866;12.750;2023-05-10T12:37:35;15.10;89.20
4376;DHT22;2202;50.866;12.750;2023-05-10T12:40:06;15.20;89.80
4376;DHT22;2202;50.866;12.750;2023-05-10T12:42:34;15.30;90.40
4376;DHT22;2202;50.866;12.750;2023-05-10T12:45:02;15.50;90.30
4376;DHT22;2202;50.866;12.750;2023-05-10T12:47:30;15.60;88.80
4376;DHT22;2202;50.866;12.750;2023-05-10T12:49:57;15.70;87.60
4376;DHT22;2202;50.866;12.750;2023-05-10T12:52:24;15.70;87.40
4376;DHT22;2202;50.866;12.750;2023-05-10T12:54:51;15.60;89.20
4376;DHT22;2202;50.866;12.750;2023-05-10T12:57:18;15.50;90.10
4376;DHT22;2202;50.866;12.750;2023-05-10T12:59:45;15.60;90.30
4376;DHT22;2202;50.866;12.750;2023-05-10T13:02:12;15.50;89.80
4376;DHT22;2202;50.866;12.750;2023-05-10T13:04:41;15.40;88.00
4376;DHT22;2202;50.866;12.750;2023-05-10T13:07:08;15.50;89.80
4376;DHT22;2202;50.866;12.750;2023-05-10T13:09:35;15.60;90.10
4376;DHT22;2202;50.866;12.750;2023-05-10T13:12:02;15.80;88.40
4376;DHT22;2202;50.866;12.750;2023-05-10T13:14:29;16.00;88.80
4376;DHT22;2202;50.866;12.750;2023-05-10T13:16:56;16.20;88.80
4376;DHT22;2202;50.866;12.750;2023-05-10T13:19:23;16.20;86.20
4376;DHT22;2202;50.866;12.750;2023-05-10T13:21:51;16.10;86.80
4376;DHT22;2202;50.866;12.750;2023-05-10T13:24:18;16.10;87.00
4376;DHT22;2202;50.866;12.750;2023-05-10T13:26:45;16.10;87.00
4376;DHT22;2202;50.866;12.750;2023-05-10T13:29:12;15.80;87.60
4376;DHT22;2202;50.866;12.750;2023-05-10T13:31:39;15.80;87.80
4376;DHT22;2202;50.866;12.750;2023-05-10T13:34:05;15.90;88.00
4376;DHT22;2202;50.866;12.750;2023-05-10T13:36:33;16.00;85.80
4376;DHT22;2202;50.866;12.750;2023-05-10T13:39:01;16.00;85.20
4376;DHT22;2202;50.866;12.750;2023-05-10T13:41:28;16.00;86.60
4376;DHT22;2202;50.866;12.750;2023-05-10T13:43:55;16.10;84.60
4376;DHT22;2202;50.866;12.750;2023-05-10T13:46:22;16.20;86.20
4376;DHT22;2202;50.866;12.750;2023-05-10T13:48:49;16.20;87.20
4376;DHT22;2202;50.866;12.750;2023-05-10T13:51:16;16.40;84.00
4376;DHT22;2202;50.866;12.750;2023-05-10T13:53:43;16.50;83.20
4376;DHT22;2202;50.866;12.750;2023-05-10T13:56:11;16.70;81.60
4376;DHT22;2202;50.866;12.750;2023-05-10T13:58:38;16.50;83.20
4376;DHT22;2202;50.866;12.750;2023-05-10T14:01:05;16.50;82.80
4376;DHT22;2202;50.866;12.750;2023-05-10T14:03:32;16.60;83.00
4376;DHT22;2202;50.866;12.750;2023-05-10T14:05:59;16.30;83.60
4376;DHT22;2202;50.866;12.750;2023-05-10T14:08:25;16.40;84.60
4376;DHT22;2202;50.866;12.750;2023-05-10T14:10:53;16.30;83.60
4376;DHT22;2202;50.866;12.750;2023-05-10T14:13:23;16.20;83.40
4376;DHT22;2202;50.866;12.750;2023-05-10T14:15:50;16.20;84.00
4376;DHT22;2202;50.866;12.750;2023-05-10T14:18:17;16.30;83.40
4376;DHT22;2202;50.866;12.750;2023-05-10T14:20:43;16.30;84.00
4376;DHT22;2202;50.866;12.750;2023-05-10T14:23:10;16.20;83.60
4376;DHT22;2202;50.866;12.750;2023-05-10T14:25:38;16.10;83.40
4376;DHT22;2202;50.866;12.750;2023-05-10T14:28:05;16.00;84.40
4376;DHT22;2202;50.866;12.750;2023-05-10T14:30:33;16.10;83.80
4376;DHT22;2202;50.866;12.750;2023-05-10T14:33:01;16.20;84.00
4376;DHT22;2202;50.866;12.750;2023-05-10T14:35:29;16.20;84.40
4376;DHT22;2202;50.866;12.750;2023-05-10T14:37:56;16.30;83.60
4376;DHT22;2202;50.866;12.750;2023-05-10T14:40:23;16.30;83.00
4376;DHT22;2202;50.866;12.750;2023-05-10T14:42:50;16.40;82.60
4376;DHT22;2202;50.866;12.750;2023-05-10T14:45:18;16.40;81.80
4376;DHT22;2202;50.866;12.750;2023-05-10T14:47:46;16.30;82.40
4376;DHT22;2202;50.866;12.750;2023-05-10T14:50:13;16.20;84.00
4376;DHT22;2202;50.866;12.750;2023-05-10T14:52:40;16.10;83.80
4376;DHT22;2202;50.866;12.750;2023-05-10T14:55:08;15.80;84.60
4376;DHT22;2202;50.866;12.750;2023-05-10T14:57:35;15.60;86.00
4376;DHT22;2202;50.866;12.750;2023-05-10T15:00:02;15.50;87.60
4376;DHT22;2202;50.866;12.750;2023-05-10T15:02:30;15.60;87.40
4376;DHT22;2202;50.866;12.750;2023-05-10T15:04:58;15.50;87.00
4376;DHT22;2202;50.866;12.750;2023-05-10T15:07:25;15.60;87.40
4376;DHT22;2202;50.866;12.750;2023-05-10T15:09:52;15.70;86.80
4376;DHT22;2202;50.866;12.750;2023-05-10T15:12:20;15.60;88.00
4376;DHT22;2202;50.866;12.750;2023-05-10T15:14:46;15.60;89.40
4376;DHT22;2202;50.866;12.750;2023-05-10T15:17:13;15.50;87.80
4376;DHT22;2202;50.866;12.750;2023-05-10T15:19:41;15.60;89.60
4376;DHT22;2202;50.866;12.750;2023-05-10T15:22:10;15.70;87.60
4376;DHT22;2202;50.866;12.750;2023-05-10T15:24:37;15.80;87.80
4376;DHT22;2202;50.866;12.750;2023-05-10T15:27:03;15.80;88.60
4376;DHT22;2202;50.866;12.750;2023-05-10T15:29:30;15.60;86.00
4376;DHT22;2202;50.866;12.750;2023-05-10T15:31:58;15.40;89.00
4376;DHT22;2202;50.866;12.750;2023-05-10T15:34:24;15.20;89.80
4376;DHT22;2202;50.866;12.750;2023-05-10T15:36:51;15.10;91.10
4376;DHT22;2202;50.866;12.750;2023-05-10T15:39:19;15.20;90.80
4376;DHT22;2202;50.866;12.750;2023-05-10T15:41:46;15.30;90.80
4376;DHT22;2202;50.866;12.750;2023-05-10T15:44:14;15.20;90.80
4376;DHT22;2202;50.866;12.750;2023-05-10T15:46:41;15.10;91.50
4376;DHT22;2202;50.866;12.750;2023-05-10T15:49:07;15.20;91.70
4376;DHT22;2202;50.866;12.750;2023-05-10T15:51:35;15.40;91.20
4376;DHT22;2202;50.866;12.750;2023-05-10T15:54:01;15.60;90.90
4376;DHT22;2202;50.866;12.750;2023-05-10T15:56:29;15.60;90.50
4376;DHT22;2202;50.866;12.750;2023-05-10T15:58:56;15.60;90.70
4376;DHT22;2202;50.866;12.750;2023-05-10T16:01:23;15.60;90.90